createdAt,value
2017-09-02T00:00:32.798Z,16.10
2017-09-02T00:02:59.624Z,12.13
2017-09-02T00:05:26.499Z,12.73
2017-09-02T00:07:53.354Z,6.90
2017-09-02T00:10:20.476Z,13.23
2017-09-02T00:12:47.638Z,10.63
2017-09-02T00:15:14.447Z,10.30
2017-09-02T00:17:41.304Z,12.53
2017-09-02T00:20:08.171Z,22.00
2017-09-02T00:22:35.251Z,12.50
2017-09-02T00:25:02.355Z,10.33
2017-09-02T00:27:29.216Z,13.43
2017-09-02T00:29:56.355Z,10.10
2017-09-02T00:32:23.206Z,11.53
2017-09-02T00:34:50.079Z,11.03
2017-09-02T00:37:17.190Z,10.40
2017-09-02T00:39:44.340Z,13.40
2017-09-02T00:42:11.232Z,11.33
2017-09-02T00:44:38.062Z,11.07
2017-09-02T00:47:04.905Z,8.53
2017-09-02T00:49:31.795Z,14.97
2017-09-02T00:51:58.613Z,9.13
2017-09-02T00:54:25.426Z,12.67
2017-09-02T00:56:52.544Z,13.70
2017-09-02T00:59:19.351Z,13.87
2017-09-02T01:01:46.200Z,12.60
2017-09-02T01:04:13.048Z,12.20
2017-09-02T01:06:39.869Z,9.30
2017-09-02T01:09:06.967Z,8.03
2017-09-02T01:11:34.036Z,15.40
2017-09-02T01:14:01.165Z,11.97
2017-09-02T01:16:28.011Z,13.53
2017-09-02T01:18:55.160Z,11.43
2017-09-02T01:21:22.312Z,15.17
2017-09-02T01:23:49.107Z,8.07
2017-09-02T01:26:16.298Z,11.93
2017-09-02T01:28:43.116Z,9.97
2017-09-02T01:31:09.969Z,10.43
2017-09-02T01:33:36.860Z,10.03
2017-09-02T01:36:03.695Z,10.60
2017-09-02T01:38:30.526Z,8.10
2017-09-02T01:40:57.768Z,13.63
2017-09-02T01:43:24.575Z,9.93
2017-09-02T01:45:51.407Z,10.53
2017-09-02T01:48:18.258Z,12.00
2017-09-02T01:50:45.090Z,17.53
2017-09-02T01:53:12.187Z,8.70
2017-09-02T01:55:39.339Z,11.60
2017-09-02T01:58:06.171Z,11.80
2017-09-02T02:00:33.004Z,9.20
2017-09-02T02:02:59.887Z,10.10
2017-09-02T02:05:26.715Z,8.40
2017-09-02T02:07:53.552Z,16.57
2017-09-02T02:10:21.197Z,11.00
2017-09-02T02:12:48.264Z,7.30
2017-09-02T02:15:15.096Z,15.27
2017-09-02T02:17:42.262Z,11.63
2017-09-02T02:20:09.106Z,14.00
2017-09-02T02:22:35.907Z,13.37
2017-09-02T02:25:02.780Z,11.37
2017-09-02T02:27:29.578Z,16.63
2017-09-02T02:29:56.411Z,9.13
2017-09-02T02:32:23.234Z,9.93
2017-09-02T02:34:50.373Z,10.20
2017-09-02T02:37:17.187Z,15.57
2017-09-02T02:39:44.031Z,17.10
2017-09-02T02:42:11.106Z,8.90
2017-09-02T02:44:37.939Z,15.03
2017-09-02T02:47:04.800Z,7.40
2017-09-02T02:49:31.631Z,9.87
2017-09-02T02:51:58.452Z,10.00
2017-09-02T02:54:25.628Z,7.30
2017-09-02T02:56:52.452Z,9.83
2017-09-02T02:59:19.480Z,10.00
2017-09-02T03:01:46.559Z,9.23
2017-09-02T03:04:13.387Z,11.83
2017-09-02T03:06:40.191Z,15.20
2017-09-02T03:09:07.039Z,16.60
2017-09-02T03:11:33.895Z,12.77
2017-09-02T03:14:00.958Z,12.93
2017-09-02T03:16:28.137Z,10.90
2017-09-02T03:18:54.970Z,9.23
2017-09-02T03:21:22.022Z,10.53
2017-09-02T03:23:49.175Z,10.57
2017-09-02T03:26:15.992Z,10.70
2017-09-02T03:28:43.071Z,17.80
2017-09-02T03:31:10.215Z,11.90
2017-09-02T03:33:37.279Z,9.00
2017-09-02T03:36:04.115Z,14.37
2017-09-02T03:38:30.976Z,9.60
2017-09-02T03:40:58.016Z,13.73
2017-09-02T03:43:24.819Z,11.37
2017-09-02T03:45:51.679Z,10.50
2017-09-02T03:48:18.513Z,7.03
2017-09-02T03:50:45.323Z,14.40
2017-09-02T03:53:12.198Z,16.10
2017-09-02T03:55:38.999Z,8.53
2017-09-02T03:58:05.832Z,8.50
2017-09-02T04:00:32.699Z,11.23
2017-09-02T04:02:59.791Z,13.70
2017-09-02T04:05:26.602Z,16.40
2017-09-02T04:07:53.688Z,16.20
2017-09-02T04:10:20.522Z,15.33
2017-09-02T04:12:47.779Z,12.90
2017-09-02T04:15:14.619Z,16.83
2017-09-02T04:17:41.427Z,8.40
2017-09-02T04:20:08.243Z,9.23
2017-09-02T04:22:35.359Z,12.20
2017-09-02T04:25:02.178Z,9.60
2017-09-02T04:27:28.995Z,9.53
2017-09-02T04:29:55.835Z,13.73
2017-09-02T04:32:22.667Z,14.03
2017-09-02T04:34:49.787Z,13.60
2017-09-02T04:37:16.927Z,15.17
2017-09-02T04:39:43.735Z,13.10
2017-09-02T04:42:10.547Z,21.53
2017-09-02T04:44:37.408Z,13.33
2017-09-02T04:47:04.247Z,13.30
2017-09-02T04:49:31.063Z,12.63
2017-09-02T04:51:58.263Z,24.07
2017-09-02T04:54:25.083Z,17.97
2017-09-02T04:56:52.016Z,20.97
2017-09-02T04:59:18.883Z,15.13
2017-09-02T05:01:45.719Z,21.17
2017-09-02T05:04:12.527Z,13.57
2017-09-02T05:06:39.359Z,24.57
2017-09-02T05:09:06.200Z,15.73
2017-09-02T05:11:33.064Z,20.10
2017-09-02T05:13:59.896Z,77.90
2017-09-02T05:16:26.704Z,19.27
2017-09-02T05:18:53.792Z,25.27
2017-09-02T05:21:20.603Z,15.70
2017-09-02T05:23:47.762Z,13.73
2017-09-02T05:26:14.579Z,12.27
2017-09-02T05:28:41.418Z,18.20
2017-09-02T05:31:09.200Z,20.40
2017-09-02T05:33:36.371Z,21.53
2017-09-02T05:36:03.231Z,13.83
2017-09-02T05:38:30.035Z,16.77
2017-09-02T05:40:56.879Z,21.33
2017-09-02T05:43:23.972Z,18.87
2017-09-02T05:45:50.812Z,19.27
2017-09-02T05:48:17.670Z,17.40
2017-09-02T05:50:44.483Z,18.47
2017-09-02T05:53:11.623Z,29.70
2017-09-02T05:55:38.490Z,29.20
2017-09-02T05:58:05.305Z,29.33
2017-09-02T06:00:32.228Z,26.10
2017-09-02T06:02:59.408Z,22.60
2017-09-02T06:05:26.255Z,41.63
2017-09-02T06:07:53.399Z,31.40
2017-09-02T06:10:20.228Z,32.10
2017-09-02T06:12:47.487Z,29.07
2017-09-02T06:15:14.303Z,23.30
2017-09-02T06:17:41.255Z,19.17
2017-09-02T06:20:08.201Z,21.93
2017-09-02T06:22:35.383Z,20.27
2017-09-02T06:25:02.243Z,21.37
2017-09-02T06:27:29.068Z,27.40
2017-09-02T06:29:55.879Z,30.87
2017-09-02T06:32:23.063Z,24.00
2017-09-02T06:34:50.208Z,21.53
2017-09-02T06:37:17.052Z,23.07
2017-09-02T06:39:44.891Z,24.93
2017-09-02T06:42:11.782Z,23.47
2017-09-02T06:44:38.911Z,19.27
2017-09-02T06:47:05.959Z,17.13
2017-09-02T06:49:33.117Z,17.47
2017-09-02T06:52:00.267Z,14.43
2017-09-02T06:54:27.115Z,21.40
2017-09-02T06:56:54.253Z,18.07
2017-09-02T06:59:21.077Z,23.17
2017-09-02T07:01:47.949Z,17.20
2017-09-02T07:04:14.779Z,20.33
2017-09-02T07:06:41.603Z,20.33
2017-09-02T07:09:09.600Z,21.40
2017-09-02T07:11:36.418Z,20.47
2017-09-02T07:14:03.591Z,16.80
2017-09-02T07:16:30.410Z,16.60
2017-09-02T07:18:57.232Z,15.83
2017-09-02T07:21:24.590Z,15.33
2017-09-02T07:23:51.679Z,16.67
2017-09-02T07:26:18.548Z,15.63
2017-09-02T07:28:45.379Z,12.43
2017-09-02T07:31:12.730Z,13.17
2017-09-02T07:33:39.552Z,13.10
2017-09-02T07:36:06.367Z,15.07
2017-09-02T07:38:33.649Z,14.23
2017-09-02T07:41:00.464Z,13.93
2017-09-02T07:43:27.551Z,13.73
2017-09-02T07:45:54.402Z,16.27
2017-09-02T07:48:21.239Z,17.93
2017-09-02T07:50:48.089Z,14.60
2017-09-02T07:53:15.231Z,18.60
2017-09-02T07:55:42.079Z,17.07
2017-09-02T07:58:08.931Z,17.73
2017-09-02T08:00:35.824Z,17.33
2017-09-02T08:03:03.014Z,16.73
2017-09-02T08:05:30.063Z,14.40
2017-09-02T08:07:56.916Z,9.70
2017-09-02T08:10:23.778Z,14.10
2017-09-02T08:12:50.587Z,12.47
2017-09-02T08:15:17.736Z,21.87
2017-09-02T08:17:44.572Z,12.57
2017-09-02T08:20:11.403Z,10.17
2017-09-02T08:22:38.234Z,10.50
2017-09-02T08:25:05.315Z,7.83
2017-09-02T08:27:32.154Z,9.10
2017-09-02T08:29:58.976Z,9.37
2017-09-02T08:32:25.788Z,11.83
2017-09-02T08:34:52.660Z,9.43
2017-09-02T08:37:19.467Z,16.00
2017-09-02T08:39:46.312Z,11.67
2017-09-02T08:42:13.139Z,6.40
2017-09-02T08:44:40.262Z,9.10
2017-09-02T08:47:07.082Z,6.30
2017-09-02T08:49:33.935Z,7.97
2017-09-02T08:52:00.791Z,6.10
2017-09-02T08:54:27.630Z,9.00
2017-09-02T08:56:54.787Z,7.77
2017-09-02T08:59:21.619Z,5.63
2017-09-02T09:01:48.465Z,9.07
2017-09-02T09:04:15.627Z,5.87
2017-09-02T09:06:42.455Z,9.03
2017-09-02T09:09:09.511Z,7.60
2017-09-02T09:11:36.403Z,8.30
2017-09-02T09:14:03.193Z,9.53
2017-09-02T09:16:30.024Z,5.00
2017-09-02T09:18:57.193Z,3.83
2017-09-02T09:21:24.018Z,4.83
2017-09-02T09:23:50.844Z,4.20
2017-09-02T09:26:17.940Z,3.80
2017-09-02T09:28:44.782Z,8.50
2017-09-02T09:33:55.860Z,7.53
2017-09-02T09:36:22.917Z,9.60
2017-09-02T09:38:50.066Z,1.80
2017-09-02T09:41:16.849Z,4.93
2017-09-02T09:43:43.644Z,4.33
2017-09-02T09:46:10.894Z,3.37
2017-09-02T09:48:37.778Z,3.97
2017-09-02T09:51:04.655Z,7.63
2017-09-02T09:53:31.742Z,3.30
2017-09-02T09:55:58.570Z,4.03
2017-09-02T09:58:26.246Z,10.20
2017-09-02T10:00:53.398Z,5.60
2017-09-02T10:03:20.239Z,3.07
2017-09-02T10:05:47.079Z,7.07
2017-09-02T10:08:14.238Z,6.80
2017-09-02T10:10:41.134Z,7.73
2017-09-02T10:13:08.334Z,5.00
2017-09-02T10:15:35.188Z,3.67
2017-09-02T10:18:02.036Z,3.20
2017-09-02T10:20:29.170Z,3.53
2017-09-02T10:22:56.069Z,7.00
2017-09-02T10:25:22.914Z,5.17
2017-09-02T10:27:49.782Z,4.30
2017-09-02T10:30:16.625Z,8.43
2017-09-02T10:32:43.733Z,3.33
2017-09-02T10:35:10.838Z,3.33
2017-09-02T10:37:37.688Z,6.83
2017-09-02T10:40:04.539Z,6.50
2017-09-02T10:49:22.561Z,5.10
2017-09-02T10:51:49.415Z,3.93
2017-09-02T10:54:16.251Z,3.33
2017-09-02T10:59:27.881Z,7.13
2017-09-02T11:01:54.953Z,5.20
2017-09-02T11:04:21.814Z,3.50
2017-09-02T11:06:48.629Z,2.00
2017-09-02T11:09:15.452Z,3.63
2017-09-02T11:11:42.639Z,2.67
2017-09-02T11:14:15.483Z,1.60
2017-09-02T11:19:27.022Z,2.17
2017-09-02T11:21:54.543Z,3.43
2017-09-02T11:24:21.375Z,2.60
2017-09-02T11:26:48.456Z,1.58
2017-09-02T11:29:15.513Z,4.28
2017-09-02T11:31:42.347Z,4.65
2017-09-02T11:34:09.162Z,3.57
2017-09-02T11:36:36.039Z,3.13
2017-09-02T11:39:03.200Z,7.33
2017-09-02T11:41:30.035Z,3.13
2017-09-02T11:43:57.083Z,8.43
2017-09-02T11:46:24.241Z,11.17
2017-09-02T11:48:51.069Z,3.17
2017-09-02T11:51:18.235Z,6.10
2017-09-02T11:53:45.088Z,4.10
2017-09-02T11:56:11.927Z,3.70
2017-09-02T11:58:38.730Z,2.60
2017-09-02T12:01:05.600Z,4.20
2017-09-02T12:06:17.297Z,4.23
2017-09-02T12:08:44.153Z,7.93
2017-09-02T12:11:11.210Z,7.70
2017-09-02T12:13:38.324Z,7.50
2017-09-02T12:16:05.387Z,2.60
2017-09-02T12:18:32.238Z,3.77
2017-09-02T12:20:59.402Z,3.17
2017-09-02T12:23:26.254Z,2.73
2017-09-02T12:25:53.094Z,2.40
2017-09-02T12:28:20.020Z,3.10
2017-09-02T12:30:47.178Z,2.30
2017-09-02T12:33:14.330Z,4.83
2017-09-02T12:35:41.170Z,2.60
2017-09-02T12:38:07.995Z,3.70
2017-09-02T12:40:34.846Z,2.90
2017-09-02T12:43:01.690Z,2.37
2017-09-02T12:45:28.534Z,1.73
2017-09-02T12:47:55.387Z,6.33
2017-09-02T12:50:22.255Z,6.53
2017-09-02T12:52:49.382Z,7.20
2017-09-02T12:55:16.230Z,4.63
2017-09-02T12:57:43.078Z,23.10
2017-09-02T13:00:09.950Z,20.03
2017-09-02T13:02:36.774Z,6.20
2017-09-02T13:05:03.619Z,4.20
2017-09-02T13:07:30.466Z,4.40
2017-09-02T13:09:57.594Z,4.43
2017-09-02T13:12:24.467Z,3.83
2017-09-02T13:14:51.587Z,4.47
2017-09-02T13:17:18.406Z,2.80
2017-09-02T13:19:45.275Z,1.87
2017-09-02T13:22:12.118Z,3.37
2017-09-02T13:24:38.939Z,3.10
2017-09-02T13:27:06.113Z,3.47
2017-09-02T13:29:33.166Z,2.70
2017-09-02T13:32:00.314Z,8.30
2017-09-02T13:34:27.458Z,8.40
2017-09-02T13:36:54.306Z,7.87
2017-09-02T13:39:21.461Z,6.57
2017-09-02T13:41:48.336Z,4.67
2017-09-02T13:44:15.210Z,4.10
2017-09-02T13:46:42.290Z,5.83
2017-09-02T13:49:09.439Z,2.80
2017-09-02T13:51:36.290Z,10.47
2017-09-02T13:54:03.110Z,9.37
2017-09-02T13:56:29.963Z,8.03
2017-09-02T13:58:56.782Z,4.30
2017-09-02T14:01:23.610Z,3.20
2017-09-02T14:03:50.489Z,2.13
2017-09-02T14:06:17.310Z,4.00
2017-09-02T14:08:44.130Z,2.27
2017-09-02T14:11:10.998Z,2.43
2017-09-02T14:13:37.856Z,2.13
2017-09-02T14:16:05.022Z,3.60
2017-09-02T14:18:31.936Z,2.50
2017-09-02T14:20:58.783Z,7.70
2017-09-02T14:23:25.854Z,5.35
2017-09-02T14:25:52.698Z,3.65
2017-09-02T14:28:19.523Z,7.35
2017-09-02T14:30:46.353Z,6.70
2017-09-02T14:33:13.199Z,8.27
2017-09-02T14:38:13.466Z,6.57
2017-09-02T14:40:40.623Z,5.80
2017-09-02T14:43:07.439Z,3.13
2017-09-02T14:45:34.282Z,2.97
2017-09-02T14:48:01.138Z,4.43
2017-09-02T14:50:27.963Z,4.23
2017-09-02T14:52:54.843Z,4.97
2017-09-02T14:55:21.751Z,4.93
2017-09-02T14:57:48.626Z,9.60
2017-09-02T15:00:15.774Z,5.32
2017-09-02T15:02:42.589Z,8.02
2017-09-02T15:05:10.688Z,3.75
2017-09-02T15:07:37.838Z,15.63
2017-09-02T15:10:04.757Z,14.93
2017-09-02T15:12:31.594Z,9.57
2017-09-02T15:14:58.677Z,6.87
2017-09-02T15:17:25.821Z,4.25
2017-09-02T15:19:52.659Z,2.17
2017-09-02T15:22:19.527Z,2.80
2017-09-02T15:24:46.345Z,3.10
2017-09-02T15:27:13.191Z,3.17
2017-09-02T15:29:40.038Z,7.65
2017-09-02T15:32:06.863Z,8.93
2017-09-02T15:34:33.731Z,5.82
2017-09-02T15:37:00.586Z,4.72
2017-09-02T15:39:27.468Z,3.50
2017-09-02T15:41:54.562Z,5.00
2017-09-02T15:44:21.430Z,2.22
2017-09-02T15:46:48.555Z,2.75
2017-09-02T15:49:15.711Z,2.87
2017-09-02T15:51:42.605Z,2.80
2017-09-02T15:54:09.706Z,5.62
2017-09-02T15:56:36.526Z,6.77
2017-09-02T15:59:03.366Z,2.10
2017-09-02T16:01:30.210Z,2.37
2017-09-02T16:03:58.191Z,1.60
2017-09-02T16:06:25.344Z,3.20
2017-09-02T16:08:52.193Z,1.80
2017-09-02T16:11:19.028Z,3.13
2017-09-02T16:13:45.848Z,2.07
2017-09-02T16:16:12.692Z,1.90
2017-09-02T16:18:39.527Z,6.17
2017-09-02T16:21:06.364Z,9.53
2017-09-02T16:23:33.183Z,3.17
2017-09-02T16:26:00.290Z,3.80
2017-09-02T16:28:27.340Z,7.37
2017-09-02T16:30:54.491Z,6.70
2017-09-02T16:33:21.546Z,4.17
2017-09-02T16:35:48.695Z,3.00
2017-09-02T16:38:15.524Z,2.60
2017-09-02T16:40:42.579Z,4.17
2017-09-02T16:43:09.395Z,4.63
2017-09-02T16:45:36.200Z,8.00
2017-09-02T16:48:03.034Z,4.83
2017-09-02T16:50:29.859Z,5.00
2017-09-02T16:52:56.689Z,5.47
2017-09-02T16:55:23.523Z,6.13
2017-09-02T16:57:50.363Z,5.93
2017-09-02T17:00:17.187Z,4.13
2017-09-02T17:02:43.991Z,5.43
2017-09-02T17:05:10.836Z,3.00
2017-09-02T17:07:37.640Z,7.77
2017-09-02T17:10:04.803Z,10.63
2017-09-02T17:12:31.615Z,6.43
2017-09-02T17:14:58.470Z,11.13
2017-09-02T17:17:25.309Z,3.97
2017-09-02T17:19:52.335Z,7.13
2017-09-02T17:22:19.911Z,6.27
2017-09-02T17:27:19.929Z,4.47
2017-09-02T17:29:46.728Z,3.47
2017-09-02T17:32:13.529Z,2.40
2017-09-02T17:34:40.784Z,5.80
2017-09-02T17:37:07.603Z,9.10
2017-09-02T17:39:34.460Z,10.60
2017-09-02T17:42:01.299Z,4.10
2017-09-02T17:44:28.110Z,31.93
2017-09-02T17:46:55.199Z,22.80
2017-09-02T17:49:22.023Z,23.03
2017-09-02T17:51:48.883Z,9.57
2017-09-02T17:54:15.716Z,10.30
2017-09-02T17:56:42.571Z,8.70
2017-09-02T17:59:09.769Z,12.90
2017-09-02T18:01:36.602Z,11.77
2017-09-02T18:06:36.588Z,9.47
2017-09-02T18:09:03.492Z,8.53
2017-09-02T18:11:30.320Z,10.17
2017-09-02T18:13:57.161Z,9.20
2017-09-02T18:16:23.984Z,10.50
2017-09-02T18:18:50.802Z,7.90
2017-09-02T18:21:17.716Z,11.50
2017-09-02T18:23:44.588Z,5.07
2017-09-02T18:26:11.395Z,10.33
2017-09-02T18:28:38.253Z,8.90
2017-09-02T18:31:05.112Z,6.53
2017-09-02T18:33:31.965Z,4.07
2017-09-02T18:35:59.061Z,7.80
2017-09-02T18:38:26.209Z,4.23
2017-09-02T18:40:53.363Z,12.17
2017-09-02T18:43:20.204Z,18.00
2017-09-02T18:45:47.117Z,11.57
2017-09-02T18:48:13.924Z,14.30
2017-09-02T18:50:40.767Z,14.43
2017-09-02T18:53:07.755Z,21.23
2017-09-02T18:55:34.620Z,13.17
2017-09-02T18:58:01.480Z,16.33
2017-09-02T19:00:28.614Z,10.70
2017-09-02T19:02:55.779Z,12.30
2017-09-02T19:05:22.741Z,10.50
2017-09-02T19:07:49.859Z,17.80
2017-09-02T19:10:16.772Z,10.03
2017-09-02T19:12:43.611Z,4.00
2017-09-02T19:15:10.459Z,4.53
2017-09-02T19:17:37.502Z,4.97
2017-09-02T19:20:04.587Z,5.10
2017-09-02T19:22:31.449Z,4.73
2017-09-02T19:24:58.499Z,3.80
2017-09-02T19:27:25.534Z,8.80
2017-09-02T19:29:52.556Z,4.00
2017-09-02T19:32:19.439Z,8.27
2017-09-02T19:34:46.260Z,5.17
2017-09-02T19:37:13.154Z,4.07
2017-09-02T19:39:40.052Z,4.70
2017-09-02T19:42:06.872Z,9.50
2017-09-02T19:52:35.690Z,7.57
2017-09-02T19:57:40.829Z,6.23
2017-09-02T20:00:07.886Z,9.03
2017-09-02T20:02:34.989Z,5.53
2017-09-02T20:05:01.830Z,7.77
2017-09-02T20:07:28.637Z,8.43
2017-09-02T20:09:55.429Z,7.37
2017-09-02T20:12:22.253Z,7.53
2017-09-02T20:14:49.077Z,9.23
2017-09-02T20:17:15.914Z,12.27
2017-09-02T20:19:42.761Z,19.20
2017-09-02T20:22:09.582Z,12.57
2017-09-02T20:24:36.385Z,7.17
2017-09-02T20:27:03.517Z,7.23
2017-09-02T20:29:30.361Z,5.87
2017-09-02T20:31:57.150Z,7.67
2017-09-02T20:34:23.976Z,9.00
2017-09-02T20:36:50.772Z,5.27
2017-09-02T20:39:17.852Z,5.70
2017-09-02T20:41:44.989Z,7.33
2017-09-02T20:44:11.805Z,5.23
2017-09-02T20:46:38.633Z,6.37
2017-09-02T20:49:05.726Z,5.83
2017-09-02T20:51:32.525Z,9.23
2017-09-02T20:53:59.345Z,7.47
2017-09-02T20:56:26.185Z,4.93
2017-09-02T20:58:53.302Z,6.33
2017-09-02T21:01:20.097Z,6.73
2017-09-02T21:03:46.956Z,4.27
2017-09-02T21:06:13.772Z,6.63
2017-09-02T21:08:40.877Z,10.07
2017-09-02T21:11:07.730Z,6.30
2017-09-02T21:13:34.872Z,6.10
2017-09-02T21:16:01.665Z,11.90
2017-09-02T21:18:28.526Z,14.60
2017-09-02T21:20:55.323Z,9.20
2017-09-02T21:23:22.142Z,12.97
2017-09-02T21:25:49.001Z,11.70
2017-09-02T21:28:15.829Z,9.40
2017-09-02T21:30:42.629Z,14.77
2017-09-02T21:33:09.486Z,7.90
2017-09-02T21:35:36.302Z,7.40
2017-09-02T21:38:03.085Z,7.13
2017-09-02T21:40:29.912Z,6.33
2017-09-02T21:42:56.758Z,6.23
2017-09-02T21:45:23.550Z,5.10
2017-09-02T21:47:50.401Z,5.30
2017-09-02T21:50:17.512Z,5.53
2017-09-02T21:52:44.316Z,6.50
2017-09-02T21:55:11.174Z,7.57
2017-09-02T21:57:37.989Z,6.20
2017-09-02T22:00:05.101Z,8.80
2017-09-02T22:02:31.974Z,8.27
2017-09-02T22:04:58.781Z,9.47
2017-09-02T22:07:25.936Z,14.30
2017-09-02T22:09:52.773Z,10.43
2017-09-02T22:12:19.926Z,12.23
2017-09-02T22:14:47.077Z,11.67
2017-09-02T22:17:13.901Z,11.90
2017-09-02T22:19:40.969Z,15.30
2017-09-02T22:22:07.761Z,12.10
2017-09-02T22:24:34.961Z,10.53
2017-09-02T22:27:01.784Z,13.00
2017-09-02T22:29:28.581Z,11.80
2017-09-02T22:31:55.433Z,10.57
2017-09-02T22:34:22.257Z,11.20
2017-09-02T22:36:49.383Z,13.90
2017-09-02T22:39:16.227Z,16.60
2017-09-02T22:41:43.045Z,10.80
2017-09-02T22:44:09.845Z,12.60
2017-09-02T22:46:36.693Z,12.17
2017-09-02T22:49:03.522Z,14.33
2017-09-02T22:51:30.337Z,8.90
2017-09-02T22:53:57.489Z,16.20
2017-09-02T22:56:24.639Z,9.20
2017-09-02T22:58:51.456Z,16.63
2017-09-02T23:01:18.295Z,13.10
2017-09-02T23:03:45.106Z,10.60
2017-09-02T23:06:12.217Z,10.20
2017-09-02T23:08:39.065Z,8.50
2017-09-02T23:11:05.890Z,11.90
2017-09-02T23:13:32.717Z,10.40
2017-09-02T23:15:59.566Z,10.00
2017-09-02T23:18:26.381Z,12.10
2017-09-02T23:20:53.206Z,8.50
2017-09-02T23:23:20.052Z,13.53
2017-09-02T23:25:46.853Z,12.50
2017-09-02T23:28:13.693Z,10.00
2017-09-02T23:30:40.623Z,10.93
2017-09-02T23:33:07.437Z,10.27
2017-09-02T23:35:34.271Z,8.27
2017-09-02T23:38:01.125Z,6.97
2017-09-02T23:40:28.228Z,8.10
2017-09-02T23:42:55.038Z,9.47
2017-09-02T23:45:21.897Z,10.10
2017-09-02T23:47:48.723Z,11.40
2017-09-02T23:50:15.549Z,12.80
2017-09-02T23:52:42.637Z,8.80
2017-09-02T23:55:09.437Z,11.37
2017-09-02T23:57:36.528Z,11.60
